Time;durP1;ratioP1;P1;durP2;ratioP2;P2;SDS_P1;SDS_P2;PMS_P1;PMS_P2;Temp;Humidity;BMP_temperature;BMP_pressure;BME280_temperature;BME280_humidity;BME280_pressure;Samples;Min_cycle;Max_cycle;Signal;HPM_P1;HPM_P2
2022/04/15 00:00:27;;;;;;;49.67;23.40;;;11.70;99.90;;;;;;5051698;28;20016;-84
2022/04/15 00:02:53;;;;;;;56.40;22.58;;;11.80;99.90;;;;;;5040737;28;20399;-85
2022/04/15 00:05:36;;;;;;;37.58;22.05;;;11.80;99.90;;;;;;5050297;28;20056;-83
2022/04/15 00:08:12;;;;;;;41.95;22.25;;;11.90;99.90;;;;;;5046790;28;20033;-83
2022/04/15 00:10:40;;;;;;;41.92;23.35;;;11.90;99.90;;;;;;5050152;28;20035;-84
2022/04/15 00:13:08;;;;;;;36.03;21.90;;;11.90;99.90;;;;;;5051109;28;20779;-83
2022/04/15 00:15:34;;;;;;;35.80;20.10;;;12.00;99.90;;;;;;5045742;28;20055;-83
2022/04/15 00:18:00;;;;;;;40.83;23.75;;;12.10;99.90;;;;;;5059175;28;20052;-82
2022/04/15 00:20:26;;;;;;;37.28;21.88;;;11.90;99.90;;;;;;5055509;28;20024;-83
2022/04/15 00:22:53;;;;;;;41.13;20.83;;;12.00;99.90;;;;;;5060839;28;20116;-84
2022/04/15 00:25:19;;;;;;;60.08;23.98;;;12.20;99.90;;;;;;5053190;28;20110;-83
2022/04/15 00:27:45;;;;;;;37.63;22.17;;;12.00;99.90;;;;;;5041400;28;20056;-83
2022/04/15 00:30:11;;;;;;;42.35;23.00;;;12.00;99.90;;;;;;5072205;28;20455;-83
2022/04/15 00:32:37;;;;;;;52.90;25.30;;;11.90;99.90;;;;;;5067694;28;20526;-83
2022/04/15 00:35:04;;;;;;;52.15;23.83;;;11.80;99.90;;;;;;5040573;28;20029;-84
2022/04/15 00:37:31;;;;;;;55.28;22.73;;;11.80;99.90;;;;;;5032616;28;20441;-83
2022/04/15 00:39:57;;;;;;;43.65;22.55;;;12.00;99.90;;;;;;5068294;28;20589;-83
2022/04/15 00:42:23;;;;;;;46.08;23.33;;;12.00;99.90;;;;;;5045392;28;20116;-83
2022/04/15 00:44:54;;;;;;;55.35;23.52;;;11.80;99.90;;;;;;5038108;28;20125;-84
2022/04/15 00:47:51;;;;;;;37.10;20.52;;;11.90;99.90;;;;;;5052875;28;20029;-84
2022/04/15 00:50:21;;;;;;;38.00;21.48;;;11.80;99.90;;;;;;5066040;28;20034;-84
2022/04/15 00:52:50;;;;;;;34.00;20.67;;;11.80;99.90;;;;;;5042582;28;20029;-83
2022/04/15 00:55:17;;;;;;;36.83;22.40;;;11.80;99.90;;;;;;5058255;28;20032;-83
2022/04/15 00:57:49;;;;;;;36.53;20.58;;;11.70;99.90;;;;;;5060985;28;20029;-83
2022/04/15 01:00:16;;;;;;;63.60;22.23;;;11.80;99.90;;;;;;5046039;28;20041;-85
2022/04/15 01:02:44;;;;;;;39.80;21.88;;;11.70;99.90;;;;;;5058492;28;20083;-83
2022/04/15 01:05:11;;;;;;;41.65;23.40;;;11.80;99.90;;;;;;5052736;28;20120;-83
2022/04/15 01:07:46;;;;;;;42.10;23.08;;;11.70;99.90;;;;;;5059887;28;20066;-83
2022/04/15 01:10:13;;;;;;;47.10;21.92;;;11.70;99.90;;;;;;5040263;28;20096;-85
2022/04/15 01:12:53;;;;;;;31.02;19.70;;;11.70;99.90;;;;;;5054954;28;20052;-83
2022/04/15 01:15:20;;;;;;;39.95;20.00;;;11.70;99.90;;;;;;5056090;28;20023;-83
2022/04/15 01:17:46;;;;;;;30.50;18.75;;;11.60;99.90;;;;;;5025523;28;20058;-85
2022/04/15 01:20:13;;;;;;;38.33;21.10;;;11.50;99.90;;;;;;5055625;28;20036;-83
2022/04/15 01:22:41;;;;;;;83.47;27.33;;;11.50;99.90;;;;;;5055998;28;20491;-84
2022/04/15 01:25:08;;;;;;;47.95;22.35;;;11.40;99.90;;;;;;5049254;28;20399;-84
2022/04/15 01:27:39;;;;;;;46.72;23.58;;;11.30;99.90;;;;;;5022772;28;20399;-84
2022/04/15 01:30:12;;;;;;;52.25;23.60;;;11.20;99.90;;;;;;5052604;28;20090;-84
2022/04/15 01:32:37;;;;;;;40.75;20.00;;;11.20;99.90;;;;;;5043253;28;20054;-82
2022/04/15 01:35:06;;;;;;;43.17;21.38;;;11.10;99.90;;;;;;5040526;28;20038;-81
2022/04/15 01:37:32;;;;;;;40.22;22.10;;;11.10;99.90;;;;;;5054315;28;20032;-83
2022/04/15 01:39:58;;;;;;;46.55;22.73;;;11.00;99.90;;;;;;5059402;28;20052;-85
2022/04/15 01:42:25;;;;;;;42.85;23.38;;;10.90;99.90;;;;;;5058696;28;20040;-83
2022/04/15 01:44:50;;;;;;;45.17;21.58;;;10.90;99.90;;;;;;5043981;28;20026;-83
2022/04/15 01:47:16;;;;;;;65.43;23.88;;;11.00;99.90;;;;;;5033670;28;20078;-83
2022/04/15 01:49:43;;;;;;;65.20;25.35;;;11.10;99.90;;;;;;5054299;28;20037;-82
2022/04/15 01:52:09;;;;;;;38.53;20.90;;;11.00;99.90;;;;;;5039372;28;20033;-86
2022/04/15 01:54:35;;;;;;;76.28;22.20;;;11.00;99.90;;;;;;5048956;28;20040;-83
2022/04/15 01:57:01;;;;;;;90.68;24.58;;;11.00;99.90;;;;;;5051904;28;20668;-83
2022/04/15 01:59:27;;;;;;;33.15;18.52;;;11.00;99.90;;;;;;5038123;28;20396;-83
2022/04/15 02:01:55;;;;;;;35.40;20.25;;;11.00;99.90;;;;;;5043921;28;20064;-83
2022/04/15 02:04:25;;;;;;;38.65;20.58;;;11.00;99.90;;;;;;5040449;28;20112;-83
2022/04/15 02:06:52;;;;;;;41.90;22.77;;;11.00;99.90;;;;;;5039673;28;20182;-83
2022/04/15 02:09:17;;;;;;;51.47;24.70;;;11.00;99.90;;;;;;5050298;28;20029;-83
2022/04/15 02:11:43;;;;;;;39.85;22.88;;;10.90;99.90;;;;;;5054628;28;20069;-83
2022/04/15 02:14:09;;;;;;;45.28;23.60;;;10.90;99.90;;;;;;5057351;28;20628;-84
2022/04/15 02:16:35;;;;;;;42.60;24.05;;;11.00;99.90;;;;;;5047115;28;20112;-84
2022/04/15 02:19:02;;;;;;;41.03;21.92;;;11.00;99.90;;;;;;5060391;28;20162;-82
2022/04/15 02:21:28;;;;;;;40.60;21.98;;;11.00;99.90;;;;;;5041211;28;20033;-83
2022/04/15 02:23:54;;;;;;;38.75;22.58;;;11.10;99.90;;;;;;5064682;28;20025;-83
2022/04/15 02:26:19;;;;;;;46.65;24.67;;;11.20;99.90;;;;;;5060815;28;20037;-83
2022/04/15 02:28:45;;;;;;;43.05;23.20;;;11.20;99.90;;;;;;5053777;28;20032;-84
2022/04/15 02:31:11;;;;;;;56.25;24.25;;;11.20;99.90;;;;;;5056977;28;20063;-83
2022/04/15 02:33:36;;;;;;;67.68;26.17;;;11.20;99.90;;;;;;5073076;28;20029;-83
2022/04/15 02:36:02;;;;;;;50.38;24.85;;;11.10;99.90;;;;;;5053644;28;20035;-83
2022/04/15 02:38:28;;;;;;;43.78;24.20;;;11.10;99.90;;;;;;5053551;28;20029;-83
2022/04/15 02:40:54;;;;;;;48.90;24.77;;;11.10;99.90;;;;;;5057056;28;20031;-85
2022/04/15 02:43:20;;;;;;;46.83;23.20;;;11.00;99.90;;;;;;5051428;28;20052;-83
2022/04/15 02:45:47;;;;;;;46.72;23.08;;;11.10;99.90;;;;;;5044347;28;20119;-83
2022/04/15 02:48:13;;;;;;;49.55;24.13;;;11.00;99.90;;;;;;5047896;28;20021;-83
2022/04/15 02:50:39;;;;;;;48.30;23.83;;;10.90;99.90;;;;;;5070042;28;20075;-83
2022/04/15 02:53:05;;;;;;;51.67;22.63;;;10.90;99.90;;;;;;5079003;28;20028;-83
2022/04/15 02:55:31;;;;;;;47.90;23.63;;;10.90;99.90;;;;;;5041704;28;20025;-83
2022/04/15 02:57:57;;;;;;;40.05;23.13;;;10.80;99.90;;;;;;5060473;28;20032;-83
2022/04/15 03:00:23;;;;;;;35.30;19.42;;;10.70;99.90;;;;;;5043134;28;20083;-83
2022/04/15 03:02:48;;;;;;;36.40;19.77;;;10.70;99.90;;;;;;5057984;28;20029;-82
2022/04/15 03:05:14;;;;;;;37.30;20.77;;;10.60;99.90;;;;;;5065548;28;20321;-84
2022/04/15 03:07:40;;;;;;;29.65;18.38;;;10.60;99.90;;;;;;5053781;28;20024;-84
2022/04/15 03:10:07;;;;;;;34.72;18.40;;;10.50;99.90;;;;;;5049640;28;20037;-83
2022/04/15 03:12:34;;;;;;;38.33;18.90;;;10.50;99.90;;;;;;5049482;28;20143;-82
2022/04/15 03:15:00;;;;;;;42.50;21.30;;;10.50;99.90;;;;;;5055404;28;20038;-83
2022/04/15 03:17:26;;;;;;;46.60;20.75;;;10.40;99.90;;;;;;5049929;28;20040;-83
2022/04/15 03:19:52;;;;;;;32.83;18.67;;;10.20;99.90;;;;;;5058782;28;20028;-83
2022/04/15 03:22:18;;;;;;;39.53;18.40;;;10.30;99.90;;;;;;5055300;28;20137;-83
2022/04/15 03:24:43;;;;;;;33.05;18.33;;;10.20;99.90;;;;;;5078333;28;20118;-83
2022/04/15 03:27:10;;;;;;;38.97;19.10;;;10.30;99.90;;;;;;5050213;28;20032;-83
2022/04/15 03:29:36;;;;;;;31.55;17.73;;;10.30;99.90;;;;;;5057660;28;20028;-84
2022/04/15 03:32:02;;;;;;;42.13;18.30;;;10.30;99.90;;;;;;5053872;28;20075;-84
2022/04/15 03:34:28;;;;;;;30.73;17.85;;;10.40;99.90;;;;;;5060631;28;20111;-84
2022/04/15 03:36:54;;;;;;;24.35;15.18;;;10.20;99.90;;;;;;5029404;28;20170;-83
2022/04/15 03:39:20;;;;;;;28.23;16.50;;;10.30;99.90;;;;;;5054265;28;20789;-84
2022/04/15 03:41:45;;;;;;;26.65;15.25;;;10.20;99.90;;;;;;5040804;28;20113;-85
2022/04/15 03:44:11;;;;;;;22.30;12.48;;;10.30;99.90;;;;;;5047897;28;20032;-84
2022/04/15 03:46:38;;;;;;;19.27;13.02;;;10.30;99.90;;;;;;5054520;28;20502;-84
2022/04/15 03:49:04;;;;;;;17.70;11.13;;;10.30;99.90;;;;;;5061663;28;20032;-83
2022/04/15 03:51:30;;;;;;;23.83;11.82;;;10.20;99.90;;;;;;5060787;28;20032;-83
2022/04/15 03:53:56;;;;;;;20.40;10.10;;;10.30;99.90;;;;;;5054461;28;20039;-83
2022/04/15 03:56:22;;;;;;;18.25;9.60;;;10.30;99.90;;;;;;5067528;28;20236;-83
2022/04/15 03:58:47;;;;;;;14.10;9.00;;;10.20;99.90;;;;;;5055865;28;20037;-83
2022/04/15 04:01:13;;;;;;;29.92;9.73;;;10.20;99.90;;;;;;5057334;28;20500;-83
2022/04/15 04:03:38;;;;;;;13.50;9.25;;;10.20;99.90;;;;;;5046114;28;20049;-86
2022/04/15 04:06:04;;;;;;;18.00;9.10;;;10.20;99.90;;;;;;5054642;28;20020;-84
2022/04/15 04:08:30;;;;;;;19.70;10.70;;;10.30;99.90;;;;;;5031742;28;20039;-83
2022/04/15 04:10:55;;;;;;;21.95;11.32;;;10.30;99.90;;;;;;5048413;28;20029;-83
2022/04/15 04:13:22;;;;;;;18.15;11.88;;;10.20;99.90;;;;;;5046300;28;20063;-83
2022/04/15 04:15:48;;;;;;;25.50;13.55;;;10.20;99.90;;;;;;5047672;28;20021;-88
2022/04/15 04:18:14;;;;;;;24.60;13.82;;;10.20;99.90;;;;;;5049193;28;20473;-82
2022/04/15 04:20:40;;;;;;;24.00;13.55;;;10.20;99.90;;;;;;5077443;28;20600;-83
2022/04/15 04:23:06;;;;;;;27.98;14.23;;;10.20;99.90;;;;;;5063841;28;20025;-82
2022/04/15 04:25:32;;;;;;;22.95;13.02;;;10.30;99.90;;;;;;5051819;28;20395;-83
2022/04/15 04:27:57;;;;;;;21.55;13.43;;;10.30;99.90;;;;;;5062448;28;20089;-89
2022/04/15 04:30:23;;;;;;;23.20;14.02;;;10.30;99.90;;;;;;5074897;28;20048;-83
2022/04/15 04:32:52;;;;;;;23.48;12.65;;;10.30;99.90;;;;;;5053360;28;20583;-82
2022/04/15 04:35:19;;;;;;;27.50;13.57;;;10.30;99.90;;;;;;5053191;28;20029;-83
2022/04/15 04:37:45;;;;;;;20.52;12.27;;;10.30;99.90;;;;;;5053885;28;20483;-85
2022/04/15 04:40:12;;;;;;;18.70;12.05;;;10.30;99.90;;;;;;5070207;28;20032;-84
2022/04/15 04:42:38;;;;;;;21.60;13.05;;;10.40;99.90;;;;;;5049309;28;20461;-83
2022/04/15 04:45:04;;;;;;;25.85;12.48;;;10.40;99.90;;;;;;5070772;28;20059;-83
2022/04/15 04:47:30;;;;;;;21.05;12.00;;;10.40;99.90;;;;;;5061607;28;20036;-83
2022/04/15 04:49:56;;;;;;;20.63;12.70;;;10.30;99.90;;;;;;5061532;28;20095;-83
2022/04/15 04:52:24;;;;;;;21.13;12.90;;;10.30;99.90;;;;;;5060514;28;20037;-84
2022/04/15 04:54:51;;;;;;;21.27;11.75;;;10.30;99.90;;;;;;5047286;28;20041;-83
2022/04/15 04:57:16;;;;;;;26.73;14.43;;;10.30;99.90;;;;;;5062147;28;20074;-83
2022/04/15 04:59:42;;;;;;;17.38;10.95;;;10.30;99.90;;;;;;5057863;28;20041;-83
2022/04/15 05:02:10;;;;;;;23.00;12.10;;;10.40;99.90;;;;;;5055692;28;20028;-82
2022/04/15 05:04:36;;;;;;;22.42;13.05;;;10.30;99.90;;;;;;5074573;28;20029;-83
2022/04/15 05:07:03;;;;;;;20.00;12.57;;;10.30;99.90;;;;;;5072368;28;20575;-83
2022/04/15 05:09:29;;;;;;;24.80;12.82;;;10.30;99.90;;;;;;5048657;28;20128;-83
2022/04/15 05:11:55;;;;;;;19.63;11.07;;;10.30;99.90;;;;;;5051600;28;20532;-83
2022/04/15 05:14:20;;;;;;;21.17;11.80;;;10.40;99.90;;;;;;5054158;28;20036;-83
2022/04/15 05:16:47;;;;;;;17.58;11.00;;;10.50;99.90;;;;;;5041615;28;20396;-83
2022/04/15 05:19:13;;;;;;;17.30;10.55;;;10.50;99.90;;;;;;5068578;28;20024;-83
2022/04/15 05:21:39;;;;;;;20.20;11.15;;;10.50;99.90;;;;;;5061743;28;20037;-83
2022/04/15 05:24:07;;;;;;;19.08;9.63;;;10.60;99.90;;;;;;5054585;28;20033;-84
2022/04/15 05:26:33;;;;;;;19.33;10.88;;;10.50;99.90;;;;;;5035807;28;20408;-83
2022/04/15 05:29:00;;;;;;;20.33;10.93;;;10.60;99.90;;;;;;5059335;28;20633;-83
2022/04/15 05:31:25;;;;;;;16.05;9.35;;;10.70;99.90;;;;;;5059375;28;20052;-83
2022/04/15 05:33:51;;;;;;;14.13;8.80;;;10.70;99.90;;;;;;5055837;28;20039;-84
2022/04/15 05:36:17;;;;;;;14.40;9.18;;;10.70;99.90;;;;;;5049915;28;20075;-83
2022/04/15 05:38:42;;;;;;;14.50;10.10;;;10.80;99.90;;;;;;5054972;28;20115;-83
2022/04/15 05:41:08;;;;;;;21.85;10.32;;;10.80;99.90;;;;;;5052831;28;20021;-83
2022/04/15 05:43:34;;;;;;;16.40;10.10;;;10.60;99.90;;;;;;5043779;28;20035;-82
2022/04/15 05:45:59;;;;;;;17.23;11.10;;;10.70;99.90;;;;;;5049225;28;20488;-85
2022/04/15 05:48:25;;;;;;;23.85;10.23;;;10.80;99.90;;;;;;5058752;28;20077;-83
2022/04/15 05:50:51;;;;;;;16.80;10.20;;;10.80;99.90;;;;;;5066172;28;20036;-83
2022/04/15 05:53:17;;;;;;;16.30;8.90;;;10.90;99.90;;;;;;5060056;28;20100;-83
2022/04/15 05:55:43;;;;;;;16.10;8.48;;;11.00;99.90;;;;;;5057728;28;20551;-82
2022/04/15 05:58:10;;;;;;;17.90;9.63;;;11.10;99.90;;;;;;5058086;28;20123;-82
2022/04/15 06:00:36;;;;;;;15.27;8.85;;;11.00;99.90;;;;;;5056462;28;20032;-84
2022/04/15 06:03:02;;;;;;;18.40;8.93;;;11.00;99.90;;;;;;5057928;28;20025;-83
2022/04/15 06:05:28;;;;;;;15.70;9.18;;;10.90;99.90;;;;;;5057984;28;20035;-81
2022/04/15 06:07:53;;;;;;;16.42;8.95;;;10.80;99.90;;;;;;5052597;28;20102;-82
2022/04/15 06:10:20;;;;;;;17.08;9.52;;;10.90;99.90;;;;;;5052085;28;20098;-81
2022/04/15 06:12:57;;;;;;;13.27;8.57;;;11.00;99.90;;;;;;5052498;28;20044;-83
2022/04/15 06:15:33;;;;;;;13.38;7.57;;;11.20;99.90;;;;;;5049848;28;20380;-82
2022/04/15 06:18:00;;;;;;;20.60;8.95;;;11.00;99.90;;;;;;5065444;28;20031;-82
2022/04/15 06:20:27;;;;;;;14.75;7.78;;;11.00;99.90;;;;;;5062644;28;20151;-84
2022/04/15 06:22:53;;;;;;;15.10;7.90;;;11.00;99.90;;;;;;5064477;28;20060;-83
2022/04/15 06:25:19;;;;;;;12.38;8.50;;;11.10;99.90;;;;;;5075270;28;20016;-82
2022/04/15 06:27:45;;;;;;;15.82;8.13;;;11.20;99.90;;;;;;5074142;28;20029;-82
2022/04/15 06:30:10;;;;;;;15.10;7.82;;;11.20;99.90;;;;;;5064046;28;20032;-82
2022/04/15 06:32:37;;;;;;;13.45;7.80;;;11.40;99.90;;;;;;5060613;28;20495;-83
2022/04/15 06:35:04;;;;;;;15.35;8.85;;;11.60;99.90;;;;;;5051034;28;20029;-83
2022/04/15 06:37:30;;;;;;;11.50;7.70;;;11.60;99.90;;;;;;5052767;28;20021;-83
2022/04/15 06:39:56;;;;;;;13.70;8.50;;;11.70;99.90;;;;;;5051265;28;20412;-83
2022/04/15 06:42:28;;;;;;;11.90;6.95;;;11.60;99.90;;;;;;5052623;28;20057;-83
2022/04/15 06:44:54;;;;;;;12.95;7.30;;;11.70;99.90;;;;;;5048173;28;20025;-85
2022/04/15 06:47:20;;;;;;;13.02;8.40;;;11.60;99.90;;;;;;5054633;28;20115;-84
2022/04/15 06:49:46;;;;;;;19.67;8.80;;;11.60;99.90;;;;;;5064448;28;20103;-83
2022/04/15 06:52:16;;;;;;;13.10;7.75;;;11.70;99.90;;;;;;5063289;28;20043;-83
2022/04/15 06:54:42;;;;;;;12.10;8.25;;;11.90;99.90;;;;;;5055888;28;20133;-83
2022/04/15 06:57:09;;;;;;;12.93;7.82;;;12.20;99.90;;;;;;5051645;28;20039;-84
2022/04/15 06:59:35;;;;;;;11.45;7.20;;;12.20;99.90;;;;;;5063283;28;20554;-84
2022/04/15 07:02:01;;;;;;;11.27;7.75;;;12.40;99.90;;;;;;5071655;28;20032;-84
2022/04/15 07:04:27;;;;;;;11.60;7.57;;;12.40;99.90;;;;;;5051081;28;20030;-84
2022/04/15 07:06:54;;;;;;;11.52;7.30;;;12.60;99.90;;;;;;5069478;28;20115;-84
2022/04/15 07:09:19;;;;;;;10.50;7.35;;;12.80;99.90;;;;;;5044386;28;20112;-85
2022/04/15 07:11:46;;;;;;;11.63;6.40;;;12.80;99.90;;;;;;5042448;28;20454;-83
2022/04/15 07:14:12;;;;;;;13.98;7.25;;;13.00;99.90;;;;;;5048507;28;20027;-83
2022/04/15 07:16:38;;;;;;;9.25;6.88;;;13.20;99.90;;;;;;5070859;28;20436;-83
2022/04/15 07:19:04;;;;;;;12.15;6.68;;;13.20;99.90;;;;;;5064194;28;20399;-88
2022/04/15 07:21:41;;;;;;;13.38;7.57;;;13.40;99.90;;;;;;5060126;28;20063;-83
2022/04/15 07:24:07;;;;;;;14.80;7.80;;;13.30;99.90;;;;;;5057165;28;20179;-83
2022/04/15 07:26:33;;;;;;;12.57;7.80;;;13.50;99.90;;;;;;5055643;28;20036;-84
2022/04/15 07:28:59;;;;;;;11.68;6.45;;;13.80;99.90;;;;;;5051382;28;20106;-84
2022/04/15 07:31:25;;;;;;;12.77;7.00;;;13.70;99.90;;;;;;5045574;28;20065;-85
2022/04/15 07:33:52;;;;;;;12.38;7.55;;;13.40;99.90;;;;;;5057344;28;20395;-83
2022/04/15 07:39:07;;;;;;;12.93;6.32;;;13.70;99.90;;;;;;5049621;28;20050;-84
2022/04/15 07:41:36;;;;;;;13.38;7.70;;;13.90;99.90;;;;;;5046261;28;20031;-83
2022/04/15 07:44:03;;;;;;;11.25;6.45;;;13.90;99.90;;;;;;5060895;28;20029;-84
2022/04/15 07:46:29;;;;;;;11.02;7.43;;;14.20;99.90;;;;;;5054586;28;20166;-84
2022/04/15 07:48:55;;;;;;;11.60;6.68;;;14.00;99.90;;;;;;5061153;28;20861;-84
2022/04/15 07:51:20;;;;;;;9.63;6.15;;;14.50;99.90;;;;;;5057040;28;20040;-84
2022/04/15 07:53:46;;;;;;;10.95;7.05;;;15.00;99.90;;;;;;5049244;28;20712;-88
2022/04/15 07:56:12;;;;;;;12.93;7.38;;;15.00;99.90;;;;;;5046598;28;20516;-84
2022/04/15 07:58:37;;;;;;;13.30;7.22;;;15.20;99.90;;;;;;5050728;28;20505;-85
2022/04/15 08:01:03;;;;;;;12.50;7.32;;;15.30;99.90;;;;;;5044118;28;20029;-86
2022/04/15 08:03:29;;;;;;;10.07;7.05;;;15.10;99.90;;;;;;5049141;28;20455;-84
2022/04/15 08:05:55;;;;;;;15.13;7.57;;;15.00;99.90;;;;;;5054780;28;20103;-84
2022/04/15 08:08:21;;;;;;;12.02;7.65;;;15.00;99.90;;;;;;5047384;28;20029;-85
2022/04/15 08:10:53;;;;;;;11.82;7.85;;;14.80;99.90;;;;;;5045683;28;20065;-85
2022/04/15 08:13:19;;;;;;;11.60;7.43;;;14.60;99.90;;;;;;5044940;28;20025;-90
2022/04/15 08:15:46;;;;;;;9.90;7.30;;;14.70;99.90;;;;;;5051674;28;20124;-85
2022/04/15 08:18:12;;;;;;;12.73;6.97;;;14.80;99.90;;;;;;5061859;28;20021;-86
2022/04/15 08:20:38;;;;;;;13.65;8.23;;;14.90;99.90;;;;;;5059975;28;20027;-82
2022/04/15 08:23:04;;;;;;;10.90;7.10;;;14.90;99.90;;;;;;5058626;28;20483;-85
2022/04/15 08:25:30;;;;;;;12.55;8.18;;;15.00;99.90;;;;;;5048617;28;20035;-86
2022/04/15 08:27:56;;;;;;;12.77;7.53;;;15.10;99.90;;;;;;5058725;28;20041;-85
2022/04/15 08:30:22;;;;;;;14.18;7.93;;;15.30;99.80;;;;;;5056455;28;20033;-85
2022/04/15 08:32:52;;;;;;;14.60;7.97;;;15.80;97.90;;;;;;5046451;28;20645;-83
2022/04/15 08:35:18;;;;;;;14.65;9.60;;;15.90;97.50;;;;;;5050170;28;20028;-83
2022/04/15 08:37:44;;;;;;;11.40;8.05;;;16.00;97.30;;;;;;5046753;28;20086;-87
2022/04/15 08:40:11;;;;;;;14.32;9.52;;;15.90;97.90;;;;;;5050253;28;20021;-85
2022/04/15 08:42:42;;;;;;;14.13;8.55;;;16.00;96.90;;;;;;5042285;28;20398;-82
2022/04/15 08:45:08;;;;;;;12.48;8.82;;;15.80;97.80;;;;;;5055741;28;20037;-83
2022/04/15 08:47:36;;;;;;;13.63;8.35;;;15.90;97.20;;;;;;5056700;28;20514;-85
2022/04/15 08:50:05;;;;;;;11.85;9.00;;;16.20;95.60;;;;;;5059856;28;20037;-93
2022/04/15 08:52:31;;;;;;;17.52;9.63;;;16.00;96.60;;;;;;5054967;28;20037;-82
2022/04/15 08:54:58;;;;;;;13.45;8.13;;;16.50;97.30;;;;;;5059043;28;20041;-84
2022/04/15 08:57:24;;;;;;;15.20;8.50;;;17.10;94.00;;;;;;5057678;28;20090;-82
2022/04/15 08:59:50;;;;;;;12.32;8.75;;;17.50;91.10;;;;;;5055878;28;20021;-85
2022/04/15 09:02:33;;;;;;;12.25;8.25;;;17.50;87.40;;;;;;5054163;28;20403;-83
2022/04/15 09:05:00;;;;;;;14.70;8.40;;;17.50;83.00;;;;;;5045329;28;20040;-82
2022/04/15 09:07:33;;;;;;;11.52;8.02;;;17.80;86.40;;;;;;5049858;28;20119;-86
2022/04/15 09:10:00;;;;;;;15.00;7.97;;;18.10;75.80;;;;;;5049045;28;20025;-88
2022/04/15 09:12:35;;;;;;;11.02;8.15;;;17.40;83.20;;;;;;5053458;28;20033;-90
2022/04/15 09:15:06;;;;;;;15.48;8.82;;;17.80;85.70;;;;;;5046488;28;20091;-87
2022/04/15 09:17:34;;;;;;;11.85;8.40;;;18.30;77.30;;;;;;5064129;28;20104;-88
2022/04/15 09:20:01;;;;;;;13.32;9.10;;;18.50;73.90;;;;;;5064634;28;20218;-88
2022/04/15 09:22:27;;;;;;;14.38;9.63;;;18.40;76.20;;;;;;5056328;28;20099;-88
2022/04/15 09:24:53;;;;;;;12.57;8.98;;;18.40;77.70;;;;;;5070729;28;20069;-89
2022/04/15 09:27:23;;;;;;;13.15;8.75;;;17.70;74.00;;;;;;5050071;28;20041;-90
2022/04/15 09:29:51;;;;;;;16.95;9.25;;;18.10;71.00;;;;;;5064191;28;20168;-90
2022/04/15 09:32:17;;;;;;;15.95;10.18;;;18.00;71.90;;;;;;5061482;28;20057;-89
2022/04/15 09:35:00;;;;;;;13.38;9.48;;;18.10;69.60;;;;;;5047350;28;20512;-90
2022/04/15 09:37:47;;;;;;;11.65;8.20;;;17.60;73.40;;;;;;5049037;28;20041;-91
2022/04/15 09:40:25;;;;;;;14.88;9.00;;;17.90;73.20;;;;;;5045859;28;20455;-83
2022/04/15 09:42:52;;;;;;;15.52;10.13;;;18.00;69.20;;;;;;5058020;28;20445;-85
2022/04/15 09:45:30;;;;;;;13.73;10.50;;;18.10;67.00;;;;;;5053996;28;20070;-83
2022/04/15 09:48:03;;;;;;;12.95;9.63;;;18.70;63.50;;;;;;5055752;28;20033;-83
2022/04/15 09:50:37;;;;;;;15.93;10.43;;;19.30;61.60;;;;;;5060467;28;20127;-83
2022/04/15 09:53:23;;;;;;;19.00;11.90;;;19.40;62.60;;;;;;5049607;28;20034;-90
2022/04/15 09:55:50;;;;;;;14.50;11.15;;;20.10;58.00;;;;;;5069022;28;20028;-81
2022/04/15 09:58:19;;;;;;;13.80;10.80;;;20.10;55.10;;;;;;5046695;28;20025;-79
2022/04/15 10:00:48;;;;;;;16.02;11.73;;;20.20;56.00;;;;;;5037053;28;20499;-81
2022/04/15 10:03:21;;;;;;;13.18;10.25;;;20.70;55.20;;;;;;5035550;28;20052;-80
2022/04/15 10:05:49;;;;;;;12.88;9.95;;;20.70;53.80;;;;;;5045138;28;20559;-80
2022/04/15 10:08:16;;;;;;;13.35;10.02;;;20.60;56.90;;;;;;5045519;28;20486;-86
2022/04/15 10:10:42;;;;;;;16.48;11.07;;;20.20;57.50;;;;;;5041480;28;20040;-80
2022/04/15 10:13:08;;;;;;;17.95;10.35;;;19.80;57.30;;;;;;5061483;28;20484;-80
2022/04/15 10:15:38;;;;;;;13.20;9.88;;;20.00;59.50;;;;;;5051181;28;20029;-80
2022/04/15 10:18:05;;;;;;;13.10;9.80;;;20.10;55.40;;;;;;5057172;28;20021;-80
2022/04/15 10:20:31;;;;;;;13.75;9.98;;;19.70;57.10;;;;;;5056354;28;20434;-79
2022/04/15 10:23:02;;;;;;;13.65;10.20;;;20.20;60.60;;;;;;5059615;28;20040;-78
2022/04/15 10:25:29;;;;;;;11.75;9.18;;;20.60;56.10;;;;;;5072849;28;20021;-78
2022/04/15 10:28:10;;;;;;;12.18;8.95;;;20.70;57.10;;;;;;5058559;28;20043;-82
2022/04/15 10:30:37;;;;;;;12.05;8.27;;;20.80;56.00;;;;;;5048254;28;20037;-83
2022/04/15 10:33:03;;;;;;;8.93;7.93;;;20.90;53.40;;;;;;5053176;28;20041;-82
2022/04/15 10:35:31;;;;;;;9.80;7.47;;;20.40;52.20;;;;;;5045070;28;20035;-81
2022/04/15 10:38:11;;;;;;;10.68;7.75;;;20.10;53.80;;;;;;5040985;28;20052;-83
2022/04/15 10:40:41;;;;;;;9.82;7.68;;;20.70;51.80;;;;;;5051423;28;20440;-82
2022/04/15 10:43:21;;;;;;;9.07;7.43;;;20.80;50.70;;;;;;5059476;28;20037;-82
2022/04/15 10:45:46;;;;;;;10.32;8.07;;;20.80;51.10;;;;;;5045574;28;20028;-83
2022/04/15 10:48:12;;;;;;;10.55;7.65;;;20.30;51.60;;;;;;5043042;28;20021;-82
2022/04/15 10:50:40;;;;;;;9.70;7.40;;;20.60;53.00;;;;;;5050759;28;20037;-82
2022/04/15 10:53:30;;;;;;;10.88;7.68;;;19.90;54.40;;;;;;5049451;28;20035;-82
2022/04/15 10:56:05;;;;;;;;;;;20.20;51.30;;;;;;5046668;28;20045;-81
2022/04/15 10:58:31;;;;;;;8.27;6.72;;;21.10;49.30;;;;;;5058754;28;19916;-82
2022/04/15 11:01:21;;;;;;;9.65;6.43;;;21.60;47.50;;;;;;5054290;28;20083;-82
2022/04/15 11:03:53;;;;;;;;;;;22.10;47.30;;;;;;5058809;28;20186;-82
2022/04/15 11:06:26;;;;;;;8.85;6.22;;;22.80;45.40;;;;;;5063929;28;19913;-82
2022/04/15 11:08:52;;;;;;;8.75;6.85;;;23.30;44.90;;;;;;5065607;28;20032;-84
2022/04/15 11:11:32;;;;;;;10.73;7.13;;;23.00;46.20;;;;;;5047603;28;20114;-82
2022/04/15 11:14:00;;;;;;;10.75;7.93;;;23.30;45.60;;;;;;5047663;28;20132;-83
2022/04/15 11:16:50;;;;;;;10.75;8.00;;;22.80;46.90;;;;;;5057750;28;20108;-83
2022/04/15 11:19:29;;;;;;;10.60;8.52;;;23.30;43.50;;;;;;5063797;28;20119;-84
2022/04/15 11:21:54;;;;;;;9.82;8.02;;;24.10;44.10;;;;;;5054198;28;20036;-84
2022/04/15 11:24:21;;;;;;;9.98;8.23;;;24.40;42.80;;;;;;5039066;28;20095;-83
2022/04/15 11:26:47;;;;;;;9.98;8.77;;;24.80;41.00;;;;;;5036907;28;20029;-83
2022/04/15 11:29:14;;;;;;;11.38;8.40;;;24.20;41.40;;;;;;5046221;28;20583;-85
2022/04/15 11:31:46;;;;;;;10.82;8.40;;;24.20;41.00;;;;;;5060101;28;20050;-84
2022/04/15 11:34:20;;;;;;;9.80;8.18;;;23.90;44.20;;;;;;5038098;28;20098;-92
2022/04/15 11:36:48;;;;;;;9.77;8.07;;;23.60;41.20;;;;;;5062876;28;20059;-84
2022/04/15 11:39:15;;;;;;;13.57;8.68;;;23.40;41.90;;;;;;5046538;28;20053;-84
2022/04/15 11:41:46;;;;;;;9.32;8.43;;;22.90;42.00;;;;;;5039908;28;20099;-83
2022/04/15 11:44:14;;;;;;;9.75;8.27;;;21.80;43.50;;;;;;5048204;28;20024;-84
2022/04/15 11:46:39;;;;;;;8.50;7.60;;;22.20;46.00;;;;;;5037029;28;20097;-84
2022/04/15 11:49:22;;;;;;;8.82;7.78;;;23.40;44.60;;;;;;5062143;28;20322;-83
2022/04/15 11:51:50;;;;;;;10.35;8.57;;;24.30;44.40;;;;;;5040513;28;20064;-84
2022/04/15 11:54:20;;;;;;;10.45;8.05;;;25.10;42.90;;;;;;5056198;28;20088;-84
2022/04/15 11:56:46;;;;;;;8.70;7.68;;;24.20;39.30;;;;;;5051516;28;20115;-83
2022/04/15 11:59:12;;;;;;;9.80;8.07;;;23.30;42.80;;;;;;5057441;28;20096;-84
2022/04/15 12:01:39;;;;;;;9.02;7.90;;;23.00;44.70;;;;;;5047943;28;20064;-84
2022/04/15 12:04:05;;;;;;;10.80;7.70;;;23.50;46.30;;;;;;5047279;28;20029;-84
2022/04/15 12:06:31;;;;;;;9.63;7.80;;;24.30;42.20;;;;;;5049900;28;20110;-84
2022/04/15 12:08:57;;;;;;;9.15;7.50;;;24.70;39.20;;;;;;5049683;28;20661;-84
2022/04/15 12:11:24;;;;;;;8.48;6.93;;;24.60;40.00;;;;;;5050160;28;20613;-83
2022/04/15 12:13:58;;;;;;;9.45;6.28;;;22.90;44.20;;;;;;5045794;28;20514;-83
2022/04/15 12:16:25;;;;;;;7.70;6.03;;;22.40;40.70;;;;;;5053170;28;20052;-83
2022/04/15 12:18:52;;;;;;;6.97;6.28;;;22.10;41.50;;;;;;5057480;28;20028;-84
2022/04/15 12:21:19;;;;;;;7.18;6.32;;;21.40;44.00;;;;;;5044804;28;20034;-84
2022/04/15 12:24:10;;;;;;;10.15;6.97;;;20.80;46.80;;;;;;5057752;28;20032;-83
2022/04/15 12:26:44;;;;;;;7.82;6.15;;;22.00;45.20;;;;;;5051747;28;20031;-84
2022/04/15 12:32:25;;;;;;;7.75;6.47;;;22.60;42.50;;;;;;5042279;28;20538;-84
2022/04/15 12:35:00;;;;;;;7.63;5.90;;;23.90;40.10;;;;;;5049283;28;20527;-83
2022/04/15 12:37:47;;;;;;;9.02;6.60;;;23.50;38.30;;;;;;5044848;28;20025;-84
2022/04/15 12:40:19;;;;;;;8.38;6.45;;;24.00;39.70;;;;;;5042960;28;20025;-84
2022/04/15 12:42:46;;;;;;;8.35;6.30;;;23.80;39.20;;;;;;5047285;28;20049;-83